sensor_id;sensor_type;location;lat;lon;timestamp;pressure;altitude;pressure_sealevel;temperature;humidity
498;BME280;39559;48.630;9.162;2023-01-27T00:00:30;97664.81;;;-2.67;100.00
498;BME280;39559;48.630;9.162;2023-01-27T00:02:56;97668.25;;;-2.65;100.00
498;BME280;39559;48.630;9.162;2023-01-27T00:05:21;97657.94;;;-2.78;100.00
498;BME280;39559;48.630;9.162;2023-01-27T00:09:52;97657.13;;;-2.74;100.00
498;BME280;39559;48.630;9.162;2023-01-27T00:12:20;97651.31;;;-2.65;100.00
498;BME280;39559;48.630;9.162;2023-01-27T00:15:05;97654.66;;;-2.67;100.00
498;BME280;39559;48.630;9.162;2023-01-27T00:17:32;97647.13;;;-2.61;100.00
498;BME280;39559;48.630;9.162;2023-01-27T00:19:58;97647.91;;;-2.67;100.00
498;BME280;39559;48.630;9.162;2023-01-27T00:22:23;97646.84;;;-2.83;100.00
498;BME280;39559;48.630;9.162;2023-01-27T00:25:18;97649.28;;;-2.91;100.00
498;BME280;39559;48.630;9.162;2023-01-27T00:27:44;97652.63;;;-2.95;100.00
498;BME280;39559;48.630;9.162;2023-01-27T00:30:10;97637.63;;;-2.73;100.00
498;BME280;39559;48.630;9.162;2023-01-27T00:33:55;97643.47;;;-2.82;100.00
498;BME280;39559;48.630;9.162;2023-01-27T00:36:29;97645.94;;;-2.88;100.00
498;BME280;39559;48.630;9.162;2023-01-27T00:38:55;97650.19;;;-2.84;100.00
498;BME280;39559;48.630;9.162;2023-01-27T00:41:21;97653.72;;;-2.76;100.00
498;BME280;39559;48.630;9.162;2023-01-27T00:43:52;97652.69;;;-2.88;100.00
498;BME280;39559;48.630;9.162;2023-01-27T00:46:19;97652.16;;;-2.64;100.00
498;BME280;39559;48.630;9.162;2023-01-27T00:48:49;97651.09;;;-2.80;100.00
498;BME280;39559;48.630;9.162;2023-01-27T00:51:16;97651.88;;;-2.86;100.00
498;BME280;39559;48.630;9.162;2023-01-27T00:53:41;97650.09;;;-2.92;100.00
498;BME280;39559;48.630;9.162;2023-01-27T00:57:57;97659.44;;;-2.92;100.00
498;BME280;39559;48.630;9.162;2023-01-27T01:00:22;97653.34;;;-3.05;100.00
498;BME280;39559;48.630;9.162;2023-01-27T01:02:48;97653.50;;;-2.91;100.00
498;BME280;39559;48.630;9.162;2023-01-27T01:05:13;97655.44;;;-2.72;100.00
498;BME280;39559;48.630;9.162;2023-01-27T01:07:39;97659.66;;;-2.74;100.00
498;BME280;39559;48.630;9.162;2023-01-27T01:10:05;97658.66;;;-2.86;100.00
498;BME280;39559;48.630;9.162;2023-01-27T01:12:30;97658.75;;;-2.79;100.00
498;BME280;39559;48.630;9.162;2023-01-27T01:14:56;97656.31;;;-2.73;100.00
498;BME280;39559;48.630;9.162;2023-01-27T01:17:21;97659.66;;;-2.74;100.00
498;BME280;39559;48.630;9.162;2023-01-27T01:21:59;97653.69;;;-2.77;100.00
498;BME280;39559;48.630;9.162;2023-01-27T01:24:25;97663.06;;;-2.73;100.00
498;BME280;39559;48.630;9.162;2023-01-27T01:26:50;97661.25;;;-2.83;100.00
498;BME280;39559;48.630;9.162;2023-01-27T01:29:16;97659.50;;;-2.86;100.00
498;BME280;39559;48.630;9.162;2023-01-27T01:31:42;97662.19;;;-2.75;100.00
498;BME280;39559;48.630;9.162;2023-01-27T01:34:08;97668.22;;;-2.68;100.00
498;BME280;39559;48.630;9.162;2023-01-27T01:36:34;97663.91;;;-2.74;100.00
498;BME280;39559;48.630;9.162;2023-01-27T01:38:59;97662.91;;;-2.85;100.00
498;BME280;39559;48.630;9.162;2023-01-27T01:41:25;97660.41;;;-2.82;100.00
498;BME280;39559;48.630;9.162;2023-01-27T01:46:02;97661.28;;;-2.82;100.00
498;BME280;39559;48.630;9.162;2023-01-27T01:48:34;97656.97;;;-2.86;100.00
498;BME280;39559;48.630;9.162;2023-01-27T01:53:44;97658.72;;;-2.80;100.00
498;BME280;39559;48.630;9.162;2023-01-27T01:56:14;97652.19;;;-2.63;100.00
498;BME280;39559;48.630;9.162;2023-01-27T01:58:43;97653.53;;;-2.90;100.00
498;BME280;39559;48.630;9.162;2023-01-27T02:01:10;97647.81;;;-2.72;100.00
498;BME280;39559;48.630;9.162;2023-01-27T02:03:39;97643.88;;;-3.14;100.00
498;BME280;39559;48.630;9.162;2023-01-27T02:06:08;97644.00;;;-3.04;100.00
498;BME280;39559;48.630;9.162;2023-01-27T02:10:04;97639.38;;;-2.71;100.00
498;BME280;39559;48.630;9.162;2023-01-27T02:12:30;97637.50;;;-2.84;100.00
498;BME280;39559;48.630;9.162;2023-01-27T02:14:55;97628.47;;;-2.60;100.00
498;BME280;39559;48.630;9.162;2023-01-27T02:17:21;97630.72;;;-2.85;100.00
498;BME280;39559;48.630;9.162;2023-01-27T02:22:28;97631.78;;;-2.69;100.00
498;BME280;39559;48.630;9.162;2023-01-27T02:25:09;97633.56;;;-2.60;100.00
498;BME280;39559;48.630;9.162;2023-01-27T02:27:36;97633.28;;;-2.85;100.00
498;BME280;39559;48.630;9.162;2023-01-27T02:30:01;97631.66;;;-2.78;100.00
498;BME280;39559;48.630;9.162;2023-01-27T02:34:15;97629.78;;;-2.92;100.00
498;BME280;39559;48.630;9.162;2023-01-27T02:36:44;97622.41;;;-2.72;100.00
498;BME280;39559;48.630;9.162;2023-01-27T02:39:14;97621.38;;;-2.86;100.00
498;BME280;39559;48.630;9.162;2023-01-27T02:41:48;97626.59;;;-2.75;100.00
498;BME280;39559;48.630;9.162;2023-01-27T02:44:14;97623.38;;;-2.60;100.00
498;BME280;39559;48.630;9.162;2023-01-27T02:46:39;97623.28;;;-2.70;100.00
498;BME280;39559;48.630;9.162;2023-01-27T02:49:05;97631.66;;;-2.78;100.00
498;BME280;39559;48.630;9.162;2023-01-27T02:51:31;97626.56;;;-2.77;100.00
498;BME280;39559;48.630;9.162;2023-01-27T02:53:56;97629.97;;;-2.78;100.00
498;BME280;39559;48.630;9.162;2023-01-27T02:58:08;97630.88;;;-2.71;100.00
498;BME280;39559;48.630;9.162;2023-01-27T03:00:34;97629.25;;;-2.69;100.00
498;BME280;39559;48.630;9.162;2023-01-27T03:02:59;97628.34;;;-2.71;100.00
498;BME280;39559;48.630;9.162;2023-01-27T03:05:25;97625.88;;;-2.66;100.00
498;BME280;39559;48.630;9.162;2023-01-27T03:07:50;97624.19;;;-2.64;100.00
498;BME280;39559;48.630;9.162;2023-01-27T03:10:16;97615.75;;;-2.63;100.00
498;BME280;39559;48.630;9.162;2023-01-27T03:12:43;97620.72;;;-2.73;100.00
498;BME280;39559;48.630;9.162;2023-01-27T03:15:09;97621.66;;;-2.64;100.00
498;BME280;39559;48.630;9.162;2023-01-27T03:17:53;97619.88;;;-2.72;100.00
498;BME280;39559;48.630;9.162;2023-01-27T03:22:11;97624.19;;;-2.64;100.00
498;BME280;39559;48.630;9.162;2023-01-27T03:24:36;97625.13;;;-2.58;100.00
498;BME280;39559;48.630;9.162;2023-01-27T03:27:02;97625.13;;;-2.58;100.00
498;BME280;39559;48.630;9.162;2023-01-27T03:29:27;97623.38;;;-2.60;100.00
498;BME280;39559;48.630;9.162;2023-01-27T03:32:11;97619.09;;;-2.64;100.00
498;BME280;39559;48.630;9.162;2023-01-27T03:34:36;97623.31;;;-2.68;100.00
498;BME280;39559;48.630;9.162;2023-01-27T03:37:02;97615.69;;;-2.66;100.00
498;BME280;39559;48.630;9.162;2023-01-27T03:39:46;97626.13;;;-2.45;100.00
498;BME280;39559;48.630;9.162;2023-01-27T03:42:30;97632.13;;;-2.40;100.00
498;BME280;39559;48.630;9.162;2023-01-27T03:46:12;97634.56;;;-2.49;100.00
498;BME280;39559;48.630;9.162;2023-01-27T03:48:51;97633.69;;;-2.49;100.00
498;BME280;39559;48.630;9.162;2023-01-27T03:51:18;97639.53;;;-2.58;100.00
498;BME280;39559;48.630;9.162;2023-01-27T03:53:44;97634.19;;;-2.77;100.00
498;BME280;39559;48.630;9.162;2023-01-27T03:56:10;97630.19;;;-2.59;100.00
498;BME280;39559;48.630;9.162;2023-01-27T03:58:37;97639.50;;;-2.61;100.00
498;BME280;39559;48.630;9.162;2023-01-27T04:01:04;97634.19;;;-2.77;100.00
498;BME280;39559;48.630;9.162;2023-01-27T04:03:32;97630.94;;;-2.66;100.00
498;BME280;39559;48.630;9.162;2023-01-27T04:06:20;97631.06;;;-2.57;100.00
498;BME280;39559;48.630;9.162;2023-01-27T04:10:15;97638.69;;;-2.56;100.00
498;BME280;39559;48.630;9.162;2023-01-27T04:12:41;97634.34;;;-2.64;100.00
498;BME280;39559;48.630;9.162;2023-01-27T04:15:07;97638.38;;;-2.83;100.00
498;BME280;39559;48.630;9.162;2023-01-27T04:17:32;97635.91;;;-2.77;100.00
498;BME280;39559;48.630;9.162;2023-01-27T04:20:04;97632.56;;;-2.72;100.00
498;BME280;39559;48.630;9.162;2023-01-27T04:22:29;97640.34;;;-2.61;100.00
498;BME280;39559;48.630;9.162;2023-01-27T04:24:55;97637.59;;;-2.78;100.00
498;BME280;39559;48.630;9.162;2023-01-27T04:27:20;97634.34;;;-2.66;100.00
498;BME280;39559;48.630;9.162;2023-01-27T04:29:46;97639.44;;;-2.64;100.00
498;BME280;39559;48.630;9.162;2023-01-27T04:34:18;97640.22;;;-2.70;100.00
498;BME280;39559;48.630;9.162;2023-01-27T04:36:44;97643.56;;;-2.74;100.00
498;BME280;39559;48.630;9.162;2023-01-27T04:39:10;97646.97;;;-2.72;100.00
498;BME280;39559;48.630;9.162;2023-01-27T04:41:36;97649.66;;;-2.61;100.00
498;BME280;39559;48.630;9.162;2023-01-27T04:44:03;97644.41;;;-2.74;100.00
498;BME280;39559;48.630;9.162;2023-01-27T04:46:29;97634.34;;;-2.64;100.00
498;BME280;39559;48.630;9.162;2023-01-27T04:48:55;97647.03;;;-2.66;100.00
498;BME280;39559;48.630;9.162;2023-01-27T04:51:21;97646.16;;;-2.70;100.00
498;BME280;39559;48.630;9.162;2023-01-27T04:53:46;97638.53;;;-2.70;100.00
498;BME280;39559;48.630;9.162;2023-01-27T04:58:20;97632.50;;;-2.78;100.00
498;BME280;39559;48.630;9.162;2023-01-27T05:00:45;97636.72;;;-2.80;100.00
498;BME280;39559;48.630;9.162;2023-01-27T05:03:11;97647.88;;;-2.68;100.00
498;BME280;39559;48.630;9.162;2023-01-27T05:05:37;97643.63;;;-2.70;100.00
498;BME280;39559;48.630;9.162;2023-01-27T05:08:04;97647.13;;;-2.60;100.00
498;BME280;39559;48.630;9.162;2023-01-27T05:10:30;97654.53;;;-2.77;100.00
498;BME280;39559;48.630;9.162;2023-01-27T05:12:56;97648.59;;;-2.77;100.00
498;BME280;39559;48.630;9.162;2023-01-27T05:15:22;97645.72;;;-3.05;100.00
498;BME280;39559;48.630;9.162;2023-01-27T05:17:48;97652.59;;;-2.96;100.00
498;BME280;39559;48.630;9.162;2023-01-27T05:22:22;97656.22;;;-2.79;100.00
498;BME280;39559;48.630;9.162;2023-01-27T05:24:48;97659.81;;;-2.61;100.00
498;BME280;39559;48.630;9.162;2023-01-27T05:27:13;97652.75;;;-2.85;100.00
498;BME280;39559;48.630;9.162;2023-01-27T05:29:39;97660.44;;;-2.79;100.00
498;BME280;39559;48.630;9.162;2023-01-27T05:32:04;97665.34;;;-2.95;100.00
498;BME280;39559;48.630;9.162;2023-01-27T05:34:30;97659.47;;;-2.89;100.00
498;BME280;39559;48.630;9.162;2023-01-27T05:36:55;97668.28;;;-2.62;100.00
498;BME280;39559;48.630;9.162;2023-01-27T05:39:21;97661.41;;;-2.70;100.00
498;BME280;39559;48.630;9.162;2023-01-27T05:41:46;97661.38;;;-2.74;100.00
498;BME280;39559;48.630;9.162;2023-01-27T05:46:27;97669.66;;;-2.86;100.00
498;BME280;39559;48.630;9.162;2023-01-27T05:48:58;97668.22;;;-2.68;100.00
498;BME280;39559;48.630;9.162;2023-01-27T05:51:26;97670.50;;;-2.87;100.00
498;BME280;39559;48.630;9.162;2023-01-27T05:53:52;97670.63;;;-2.78;100.00
498;BME280;39559;48.630;9.162;2023-01-27T05:56:21;97676.00;;;-2.56;100.00
498;BME280;39559;48.630;9.162;2023-01-27T05:58:47;97676.44;;;-2.86;100.00
498;BME280;39559;48.630;9.162;2023-01-27T06:01:17;97671.41;;;-2.83;100.00
498;BME280;39559;48.630;9.162;2023-01-27T06:03:43;97679.00;;;-2.85;100.00
498;BME280;39559;48.630;9.162;2023-01-27T06:06:10;97687.78;;;-2.61;100.00
498;BME280;39559;48.630;9.162;2023-01-27T06:10:27;97677.25;;;-2.91;100.00
498;BME280;39559;48.630;9.162;2023-01-27T06:12:52;97685.84;;;-2.81;100.00
498;BME280;39559;48.630;9.162;2023-01-27T06:15:18;97682.50;;;-2.75;100.00
498;BME280;39559;48.630;9.162;2023-01-27T06:17:43;97681.72;;;-2.73;100.00
498;BME280;39559;48.630;9.162;2023-01-27T06:20:09;97684.19;;;-2.77;100.00
498;BME280;39559;48.630;9.162;2023-01-27T06:22:35;97681.78;;;-2.66;100.00
498;BME280;39559;48.630;9.162;2023-01-27T06:25:00;97686.22;;;-2.50;100.00
498;BME280;39559;48.630;9.162;2023-01-27T06:27:26;97690.31;;;-2.63;100.00
498;BME280;39559;48.630;9.162;2023-01-27T06:29:51;97685.97;;;-2.70;100.00
498;BME280;39559;48.630;9.162;2023-01-27T06:34:29;97688.59;;;-2.65;100.00
498;BME280;39559;48.630;9.162;2023-01-27T06:36:55;97681.84;;;-2.63;100.00
498;BME280;39559;48.630;9.162;2023-01-27T06:39:20;97686.88;;;-2.66;100.00
498;BME280;39559;48.630;9.162;2023-01-27T06:41:48;97686.88;;;-2.66;100.00
498;BME280;39559;48.630;9.162;2023-01-27T06:44:14;97682.50;;;-2.78;100.00
498;BME280;39559;48.630;9.162;2023-01-27T06:46:40;97688.56;;;-2.67;100.00
498;BME280;39559;48.630;9.162;2023-01-27T06:49:06;97690.22;;;-2.71;100.00
498;BME280;39559;48.630;9.162;2023-01-27T06:51:31;97702.13;;;-2.66;100.00
498;BME280;39559;48.630;9.162;2023-01-27T06:53:57;97711.59;;;-2.53;100.00
498;BME280;39559;48.630;9.162;2023-01-27T06:58:32;97706.09;;;-2.84;100.00
498;BME280;39559;48.630;9.162;2023-01-27T07:00:57;97712.13;;;-2.79;100.00
498;BME280;39559;48.630;9.162;2023-01-27T07:03:23;97716.44;;;-2.73;100.00
498;BME280;39559;48.630;9.162;2023-01-27T07:05:49;97722.44;;;-2.68;100.00
498;BME280;39559;48.630;9.162;2023-01-27T07:08:15;97727.72;;;-2.54;100.00
498;BME280;39559;48.630;9.162;2023-01-27T07:10:41;97734.19;;;-2.76;100.00
498;BME280;39559;48.630;9.162;2023-01-27T07:13:07;97736.75;;;-2.73;100.00
498;BME280;39559;48.630;9.162;2023-01-27T07:15:34;97741.91;;;-2.68;100.00
498;BME280;39559;48.630;9.162;2023-01-27T07:18:00;97740.22;;;-2.68;100.00
498;BME280;39559;48.630;9.162;2023-01-27T07:22:34;97751.44;;;-2.54;100.00
498;BME280;39559;48.630;9.162;2023-01-27T07:25:00;97750.53;;;-2.57;100.00
498;BME280;39559;48.630;9.162;2023-01-27T07:27:26;97756.56;;;-2.52;100.00
498;BME280;39559;48.630;9.162;2023-01-27T07:29:52;97748.06;;;-2.51;100.00
498;BME280;39559;48.630;9.162;2023-01-27T07:32:18;97752.13;;;-2.64;100.00
498;BME280;39559;48.630;9.162;2023-01-27T07:34:43;97745.50;;;-2.54;100.00
498;BME280;39559;48.630;9.162;2023-01-27T07:37:09;97746.25;;;-2.61;100.00
498;BME280;39559;48.630;9.162;2023-01-27T07:39:37;97744.53;;;-2.62;100.00
498;BME280;39559;48.630;9.162;2023-01-27T07:42:04;97752.13;;;-2.67;100.00
498;BME280;39559;48.630;9.162;2023-01-27T07:46:36;97760.75;;;-2.54;100.00
498;BME280;39559;48.630;9.162;2023-01-27T07:49:02;97762.72;;;-2.33;100.00
498;BME280;39559;48.630;9.162;2023-01-27T07:51:27;97765.91;;;-2.49;100.00
498;BME280;39559;48.630;9.162;2023-01-27T07:53:53;97767.78;;;-2.36;100.00
498;BME280;39559;48.630;9.162;2023-01-27T07:56:18;97766.06;;;-2.37;100.00
498;BME280;39559;48.630;9.162;2023-01-27T07:58:44;97765.84;;;-2.54;100.00
498;BME280;39559;48.630;9.162;2023-01-27T08:01:10;97764.38;;;-2.37;100.00
498;BME280;39559;48.630;9.162;2023-01-27T08:03:36;97772.03;;;-2.34;100.00
498;BME280;39559;48.630;9.162;2023-01-27T08:06:03;97771.09;;;-2.43;100.00
498;BME280;39559;48.630;9.162;2023-01-27T08:10:39;97786.28;;;-2.46;100.00
498;BME280;39559;48.630;9.162;2023-01-27T08:13:05;97778.75;;;-2.42;100.00
498;BME280;39559;48.630;9.162;2023-01-27T08:15:30;97776.41;;;-2.25;100.00
498;BME280;39559;48.630;9.162;2023-01-27T08:17:57;97778.69;;;-2.45;100.00
498;BME280;39559;48.630;9.162;2023-01-27T08:20:24;97774.69;;;-2.26;100.00
498;BME280;39559;48.630;9.162;2023-01-27T08:22:50;97770.25;;;-2.41;100.00
498;BME280;39559;48.630;9.162;2023-01-27T08:25:16;97783.81;;;-2.42;100.00
498;BME280;39559;48.630;9.162;2023-01-27T08:27:42;97770.66;;;-2.10;100.00
498;BME280;39559;48.630;9.162;2023-01-27T08:30:08;97775.63;;;-2.19;100.00
498;BME280;39559;48.630;9.162;2023-01-27T08:34:42;97788.03;;;-2.42;100.00
498;BME280;39559;48.630;9.162;2023-01-27T08:37:07;97795.66;;;-2.45;100.00
498;BME280;39559;48.630;9.162;2023-01-27T08:39:33;97793.06;;;-2.47;100.00
498;BME280;39559;48.630;9.162;2023-01-27T08:41:59;97799.84;;;-2.46;100.00
498;BME280;39559;48.630;9.162;2023-01-27T08:44:25;97806.59;;;-2.48;100.00
498;BME280;39559;48.630;9.162;2023-01-27T08:46:53;97800.13;;;-2.26;100.00
498;BME280;39559;48.630;9.162;2023-01-27T08:49:19;97805.84;;;-2.41;100.00
498;BME280;39559;48.630;9.162;2023-01-27T08:51:44;97798.31;;;-2.33;100.00
498;BME280;39559;48.630;9.162;2023-01-27T08:54:10;97794.13;;;-2.33;100.00
498;BME280;39559;48.630;9.162;2023-01-27T08:58:43;97800.81;;;-2.38;100.00
498;BME280;39559;48.630;9.162;2023-01-27T09:01:11;97805.19;;;-2.27;100.00
498;BME280;39559;48.630;9.162;2023-01-27T09:03:37;97800.91;;;-2.32;100.00
498;BME280;39559;48.630;9.162;2023-01-27T09:06:03;97805.97;;;-2.32;100.00
498;BME280;39559;48.630;9.162;2023-01-27T09:08:30;97810.28;;;-2.29;100.00
498;BME280;39559;48.630;9.162;2023-01-27T09:10:56;97813.09;;;-2.09;100.00
498;BME280;39559;48.630;9.162;2023-01-27T09:13:21;97802.69;;;-2.24;100.00
498;BME280;39559;48.630;9.162;2023-01-27T09:15:50;97801.91;;;-2.19;100.00
498;BME280;39559;48.630;9.162;2023-01-27T09:18:16;97799.28;;;-2.26;100.00
498;BME280;39559;48.630;9.162;2023-01-27T09:22:46;97800.06;;;-2.30;100.00
498;BME280;39559;48.630;9.162;2023-01-27T09:25:16;97795.03;;;-2.26;100.00
498;BME280;39559;48.630;9.162;2023-01-27T09:27:42;97796.72;;;-2.26;100.00
498;BME280;39559;48.630;9.162;2023-01-27T09:30:10;97794.13;;;-2.29;100.00
498;BME280;39559;48.630;9.162;2023-01-27T09:32:36;97800.00;;;-2.35;100.00
498;BME280;39559;48.630;9.162;2023-01-27T09:35:02;97795.16;;;-2.15;100.00
498;BME280;39559;48.630;9.162;2023-01-27T09:37:29;97800.03;;;-2.34;100.00
498;BME280;39559;48.630;9.162;2023-01-27T09:40:00;97797.31;;;-2.46;100.00
498;BME280;39559;48.630;9.162;2023-01-27T09:55:06;97807.72;;;-2.27;100.00
498;BME280;39559;48.630;9.162;2023-01-27T09:58:07;97808.50;;;-2.33;100.00
498;BME280;39559;48.630;9.162;2023-01-27T10:13:53;97817.16;;;-2.19;100.00
498;BME280;39559;48.630;9.162;2023-01-27T10:16:40;97827.13;;;-2.36;100.00
498;BME280;39559;48.630;9.162;2023-01-27T10:29:43;97831.53;;;-2.25;100.00
498;BME280;39559;48.630;9.162;2023-01-27T10:35:13;97824.56;;;-2.37;100.00
498;BME280;39559;48.630;9.162;2023-01-27T10:40:36;97820.44;;;-2.29;100.00
498;BME280;39559;48.630;9.162;2023-01-27T10:45:51;97831.41;;;-2.35;100.00
498;BME280;39559;48.630;9.162;2023-01-27T10:48:32;97820.44;;;-2.27;100.00
498;BME280;39559;48.630;9.162;2023-01-27T10:51:20;97834.25;;;-2.10;100.00
498;BME280;39559;48.630;9.162;2023-01-27T10:53:56;97830.19;;;-1.96;100.00
498;BME280;39559;48.630;9.162;2023-01-27T11:04:46;97828.19;;;-2.21;100.00
498;BME280;39559;48.630;9.162;2023-01-27T11:07:21;97834.81;;;-2.33;100.00
498;BME280;39559;48.630;9.162;2023-01-27T11:09:53;97821.38;;;-2.22;100.00
498;BME280;39559;48.630;9.162;2023-01-27T11:12:28;97826.53;;;-2.18;100.00
498;BME280;39559;48.630;9.162;2023-01-27T11:14:56;97823.38;;;-1.97;100.00
498;BME280;39559;48.630;9.162;2023-01-27T11:17:34;97812.47;;;-1.91;100.00
498;BME280;39559;48.630;9.162;2023-01-27T11:28:36;97814.91;;;-1.97;100.00
498;BME280;39559;48.630;9.162;2023-01-27T11:36:32;97822.44;;;-2.05;100.00
498;BME280;39559;48.630;9.162;2023-01-27T11:38:59;97816.75;;;-1.85;100.00
498;BME280;39559;48.630;9.162;2023-01-27T11:41:36;97804.69;;;-2.02;100.00
498;BME280;39559;48.630;9.162;2023-01-27T11:44:07;97797.19;;;-1.88;100.00
498;BME280;39559;48.630;9.162;2023-01-27T11:47:01;97797.81;;;-2.06;100.00
498;BME280;39559;48.630;9.162;2023-01-27T11:49:31;97792.91;;;-1.94;100.00
498;BME280;39559;48.630;9.162;2023-01-27T11:52:09;97794.72;;;-1.83;100.00
498;BME280;39559;48.630;9.162;2023-01-27T11:54:43;97782.72;;;-1.94;100.00
498;BME280;39559;48.630;9.162;2023-01-27T11:57:21;97789.78;;;-1.68;100.00
498;BME280;39559;48.630;9.162;2023-01-27T11:59:49;97786.31;;;-1.76;100.00
498;BME280;39559;48.630;9.162;2023-01-27T12:02:32;97789.50;;;-1.94;100.00
498;BME280;39559;48.630;9.162;2023-01-27T12:05:08;97790.38;;;-1.92;100.00
498;BME280;39559;48.630;9.162;2023-01-27T12:07:55;97791.16;;;-1.98;100.00
498;BME280;39559;48.630;9.162;2023-01-27T12:11:17;97786.28;;;-1.79;100.00
498;BME280;39559;48.630;9.162;2023-01-27T12:13:49;97780.28;;;-1.84;100.00
498;BME280;39559;48.630;9.162;2023-01-27T12:16:15;97779.41;;;-1.86;100.00
498;BME280;39559;48.630;9.162;2023-01-27T12:18:50;97782.81;;;-1.84;100.00
498;BME280;39559;48.630;9.162;2023-01-27T12:21:17;97776.91;;;-1.80;100.00
498;BME280;39559;48.630;9.162;2023-01-27T12:23:49;97770.06;;;-1.86;100.00
498;BME280;39559;48.630;9.162;2023-01-27T12:26:34;97775.34;;;-1.70;100.00
498;BME280;39559;48.630;9.162;2023-01-27T12:29:05;97772.69;;;-1.81;100.00
498;BME280;39559;48.630;9.162;2023-01-27T12:31:43;97775.31;;;-1.72;100.00
498;BME280;39559;48.630;9.162;2023-01-27T12:35:15;97777.34;;;-1.42;100.00
498;BME280;39559;48.630;9.162;2023-01-27T12:37:43;97784.75;;;-1.63;100.00
498;BME280;39559;48.630;9.162;2023-01-27T12:40:18;97782.00;;;-1.82;100.00
498;BME280;39559;48.630;9.162;2023-01-27T12:42:49;97780.31;;;-1.81;100.00
498;BME280;39559;48.630;9.162;2023-01-27T12:50:39;97770.22;;;-1.72;100.00
498;BME280;39559;48.630;9.162;2023-01-27T12:55:45;97770.09;;;-1.84;100.00
498;BME280;39559;48.630;9.162;2023-01-27T12:59:13;97764.94;;;-1.90;100.00
498;BME280;39559;48.630;9.162;2023-01-27T13:01:40;97762.63;;;-1.70;100.00
498;BME280;39559;48.630;9.162;2023-01-27T13:04:16;97770.53;;;-1.43;100.00
498;BME280;39559;48.630;9.162;2023-01-27T13:09:23;97763.47;;;-1.68;100.00
498;BME280;39559;48.630;9.162;2023-01-27T13:11:51;97769.50;;;-1.59;100.00
498;BME280;39559;48.630;9.162;2023-01-27T13:14:18;97766.84;;;-1.72;100.00
498;BME280;39559;48.630;9.162;2023-01-27T13:16:51;97766.03;;;-1.67;100.00
498;BME280;39559;48.630;9.162;2023-01-27T13:19:17;97767.06;;;-1.51;100.00
498;BME280;39559;48.630;9.162;2023-01-27T13:23:17;97762.03;;;-1.43;100.00
498;BME280;39559;48.630;9.162;2023-01-27T13:26:20;97769.72;;;-1.37;100.00
498;BME280;39559;48.630;9.162;2023-01-27T13:34:23;97762.16;;;-1.31;100.00
498;BME280;39559;48.630;9.162;2023-01-27T13:37:21;97762.78;;;-1.53;100.00
498;BME280;39559;48.630;9.162;2023-01-27T13:42:42;97769.59;;;-1.51;100.00
498;BME280;39559;48.630;9.162;2023-01-27T13:47:19;97773.81;;;-1.53;100.00
498;BME280;39559;48.630;9.162;2023-01-27T13:49:55;97783.97;;;-1.56;100.00
498;BME280;39559;48.630;9.162;2023-01-27T13:52:23;97789.91;;;-1.57;100.00
498;BME280;39559;48.630;9.162;2023-01-27T13:54:49;97784.91;;;-1.46;100.00
498;BME280;39559;48.630;9.162;2023-01-27T13:57:53;97787.44;;;-1.49;100.00
498;BME280;39559;48.630;9.162;2023-01-27T14:03:46;97795.94;;;-1.46;100.00
498;BME280;39559;48.630;9.162;2023-01-27T14:11:28;97801.00;;;-1.52;100.00
498;BME280;39559;48.630;9.162;2023-01-27T14:14:09;97809.56;;;-1.42;100.00
498;BME280;39559;48.630;9.162;2023-01-27T14:19:45;97813.66;;;-1.57;100.00
498;BME280;39559;48.630;9.162;2023-01-27T14:27:32;97810.09;;;-1.74;100.00
498;BME280;39559;48.630;9.162;2023-01-27T14:38:02;97816.28;;;-1.52;100.00
498;BME280;39559;48.630;9.162;2023-01-27T14:40:33;97813.63;;;-1.63;100.00
498;BME280;39559;48.630;9.162;2023-01-27T14:43:30;97825.34;;;-1.76;100.00
498;BME280;39559;48.630;9.162;2023-01-27T14:46:14;97820.19;;;-1.83;100.00
498;BME280;39559;48.630;9.162;2023-01-27T14:51:36;97823.69;;;-1.72;100.00
498;BME280;39559;48.630;9.162;2023-01-27T15:02:44;97826.97;;;-1.82;100.00
498;BME280;39559;48.630;9.162;2023-01-27T15:13:59;97820.38;;;-1.65;100.00
498;BME280;39559;48.630;9.162;2023-01-27T15:26:06;97821.97;;;-1.76;100.00
498;BME280;39559;48.630;9.162;2023-01-27T15:28:37;97822.88;;;-1.71;100.00
498;BME280;39559;48.630;9.162;2023-01-27T15:41:34;97827.06;;;-1.76;100.00
498;BME280;39559;48.630;9.162;2023-01-27T15:47:23;97825.47;;;-1.65;100.00
498;BME280;39559;48.630;9.162;2023-01-27T15:50:12;97829.69;;;-1.68;100.00
498;BME280;39559;48.630;9.162;2023-01-27T15:52:46;97824.38;;;-1.84;100.00
498;BME280;39559;48.630;9.162;2023-01-27T15:55:26;97832.13;;;-1.76;100.00
498;BME280;39559;48.630;9.162;2023-01-27T16:00:38;97848.44;;;-1.62;100.00
498;BME280;39559;48.630;9.162;2023-01-27T16:03:18;97855.88;;;-1.77;100.00
498;BME280;39559;48.630;9.162;2023-01-27T16:05:49;97859.91;;;-1.93;100.00
498;BME280;39559;48.630;9.162;2023-01-27T16:08:17;97862.53;;;-1.88;100.00
498;BME280;39559;48.630;9.162;2023-01-27T16:16:36;97866.09;;;-1.74;100.00
498;BME280;39559;48.630;9.162;2023-01-27T16:21:54;97879.50;;;-1.87;100.00
498;BME280;39559;48.630;9.162;2023-01-27T16:24:52;97882.16;;;-1.80;100.00
498;BME280;39559;48.630;9.162;2023-01-27T16:30:55;97885.78;;;-1.61;100.00
498;BME280;39559;48.630;9.162;2023-01-27T16:35:26;97901.75;;;-1.74;100.00
498;BME280;39559;48.630;9.162;2023-01-27T16:38:06;97896.72;;;-1.71;100.00
498;BME280;39559;48.630;9.162;2023-01-27T16:40:37;97897.47;;;-1.78;100.00
498;BME280;39559;48.630;9.162;2023-01-27T16:43:07;97895.59;;;-1.90;100.00
498;BME280;39559;48.630;9.162;2023-01-27T16:45:50;97891.44;;;-1.83;100.00
498;BME280;39559;48.630;9.162;2023-01-27T16:48:35;97900.94;;;-1.70;100.00
498;BME280;39559;48.630;9.162;2023-01-27T16:51:17;97905.09;;;-1.78;100.00
498;BME280;39559;48.630;9.162;2023-01-27T16:53:51;97912.63;;;-1.84;100.00
498;BME280;39559;48.630;9.162;2023-01-27T16:56:31;97899.38;;;-1.62;100.00
498;BME280;39559;48.630;9.162;2023-01-27T16:59:31;97893.44;;;-1.59;100.00
498;BME280;39559;48.630;9.162;2023-01-27T17:02:17;97904.13;;;-1.86;100.00
498;BME280;39559;48.630;9.162;2023-01-27T17:04:49;97907.63;;;-1.77;100.00
498;BME280;39559;48.630;9.162;2023-01-27T17:07:15;97906.00;;;-1.75;100.00
498;BME280;39559;48.630;9.162;2023-01-27T17:09:49;97908.00;;;-1.49;100.00
498;BME280;39559;48.630;9.162;2023-01-27T17:12:30;97910.44;;;-1.57;100.00